METAR Data
IDs: Format: Raw Decoded Include TAF

Data at: 1024 UTC 18 Jan 2022

ETSI 180920Z VRB03KT 9999 BKN034 04/01 Q1037 BLU BLU